Terminal Aerodrome Forecast
Issued by NWS

Home | Current Version | Previous Version | Text Only | Print | Product List | Glossary On
Versions: 1 2 3 4 5 6 7 8 9 10 11 12 13 14 15 16 17
000
FTUS45 KTFX 011700
TAFLWT
TAF
KLWT 011735Z 0118/0218 30015KT P6SM SCT120
     FM020900 33015G20KT P6SM VCSH SCT035 BKN050
      TEMPO 0212/0216 35015G25KT 3SM -SN BR BKN020=

USA.gov is the U.S. government's official web portal to all federal, state and local government web resources and services.